Nutter Fort, West Virginia
Current Conditions -  °F | °C
As of 10:53 PM on Thursday 18 Dec 2014 (Local Time) from KCKB Reporting Station
Overcast Overcast  
Wind Chill: 22°   Ceiling: 2400
Heat Index: 27°   Visibility: 10mi
Dew Point: 22°   Wind: 5mph
Humidity: 81%   Direction: 240°WSW
Pressure: 30.17"   Gusts: NA
Location:  39.2941°N, 80.3845°W
Report Text: KCKB 190353Z 24004KT 10SM FEW015 BKN024 OVC035 M03/M06 A3017 RMK AO2 SLP226 T10281056
Loading
Personal Weather Stations






























Interactive Weather Map New forecast layout! Learn more

10-Day Weather Forecast

Advertisements
Track Severe Weather on mobile